Annville, KY

10:21 PM EST on February 10, 2016 (GMT -0500)
APRSWXNET | | Change Station
CLOSE
Current Station
Personal Weather Station
Location: Fall Rock, KY
Elevation: 1515 ft
Nearby Weather Stations

Elev 1515 ft 37.21 °N, 83.84 °W | Updated 22 minutes ago

Partly Cloudy
Partly Cloudy
16 °F
Feels Like 16 °F
N
3
Wind Variable Wind from ESE
Gusts 4.0 mph

Today
High -- | Low -- °F
--% Chance of Precip.
Yesterday
High -- | Low -- °F
Precip. -- in
Pressure 30.18 in
Visibility 10.0 miles
Clouds Scattered Clouds 12000 ft
Windchill 16 °F
Dew Point 9 °F
Humidity 75%
Rainfall in
Snow Depth Not available.
7:30 AM 6:09 PM
Waxing Crescent, 9% visible
METAR KLOZ 110253Z AUTO 24003KT 10SM SCT120 M07/M13 A3012 RMK AO2 SLP218 T10721133 51012
Pressure 30.18 in
Visibility 10.0 miles
Clouds Scattered Clouds 12000 ft
Windchill 16 °F
Dew Point 9 °F
Humidity 75%
Rainfall in
Snow Depth Not available.
7:30 AM 6:09 PM
Waxing Crescent, 9% visible
METAR KLOZ 110253Z AUTO 24003KT 10SM SCT120 M07/M13 A3012 RMK AO2 SLP218 T10721133 51012

10-Day Weather Forecast

Almanac

Astronomy

Feb. 10, 2016 Rise Set
Actual Time
Civil Twilight
Nautical Twilight
Astronomical Twilight
Moon
Length of Visible Light
Length of Day
Tomorrow will be .
, % of the Moon is Illuminated

Today's Extremes

State Highs State Lows

Community

WunderPhotos

Upload Photos

1,891,993 photos uploaded!

WunderBlog® & News

Nearby

Air Quality

  Air Quality AQ Index Pollutant
Not available.

Snow Depth

Station Depth Elevation

Earthquake Activity

City Distance Mag. Time & Date
Minimum magnitude displayed is 2.5.

Coastal Water Temperatures

Place Temperature

Stations

Nearby Weather Stations

Station Location Temp. Windchill Dew Point Humidity Wind Precip. Elev Updated Type
                   

Watches & Warnings

There are currently no watches in effect.